Time;durP1;ratioP1;P1;durP2;ratioP2;P2;SDS_P1;SDS_P2;PMS_P1;PMS_P2;Temp;Humidity;BMP_temperature;BMP_pressure;BME280_temperature;BME280_humidity;BME280_pressure;Samples;Min_cycle;Max_cycle;Signal;HPM_P1;HPM_P2
2021/10/28 00:13:56;;;;;;;;;;;;;;;28.10;64.67;100986.97;4998115;28;70761;-36
2021/10/28 00:16:30;;;;;;;;;;;;;;;28.13;64.62;100991.97;5012349;28;66641;-36
2021/10/28 00:19:03;;;;;;;;;;;;;;;28.14;65.61;100997.19;5011301;28;70420;-38
2021/10/28 00:21:37;;;;;;;;;;;;;;;28.10;66.48;101000.47;5008407;28;66252;-37
2021/10/28 00:24:10;;;;;;;;;;;;;;;28.04;66.87;101002.91;4995859;28;69303;-38
2021/10/28 00:26:43;;;;;;;;;;;;;;;28.06;67.34;101000.84;5011069;28;66097;-37
2021/10/28 00:29:18;;;;;;;;;;;;;;;28.15;67.18;101011.50;5014715;28;70602;-38
2021/10/28 00:31:49;;;;;;;;;;;;;;;28.19;67.21;101007.34;5010722;28;67195;-37
2021/10/28 00:34:19;;;;;;;;;;;;;;;28.25;67.87;101017.34;5013922;28;69862;-36
2021/10/28 00:36:51;;;;;;;;;;;;;;;28.30;66.79;101014.88;5014301;28;65511;-36
2021/10/28 00:39:22;;;;;;;;;;;;;;;28.28;65.21;101016.97;5015599;28;70572;-37
2021/10/28 00:41:54;;;;;;;;;;;;;;;28.30;64.76;101009.47;5017810;28;66520;-37
2021/10/28 00:44:24;;;;;;;;;;;;;;;28.33;64.55;101008.25;5012805;28;70385;-36
2021/10/28 00:46:56;;;;;;;;;;;;;;;28.36;63.84;101008.72;5011347;28;66197;-36
2021/10/28 00:49:27;;;;;;;;;;;;;;;28.38;63.61;101011.19;5014112;28;70270;-36
2021/10/28 00:51:59;;;;;;;;;;;;;;;28.42;63.94;101012.47;5025359;28;65621;-36
2021/10/28 00:54:30;;;;;;;;;;;;;;;28.44;64.33;101011.25;5013264;28;70196;-36
2021/10/28 00:57:03;;;;;;;;;;;;;;;28.47;63.92;101016.25;5012063;28;66417;-37
2021/10/28 00:59:34;;;;;;;;;;;;;;;28.51;64.30;101020.22;5008574;28;69852;-37
2021/10/28 01:02:08;;;;;;;;;;;;;;;28.54;63.94;101023.53;5008684;28;66394;-37
2021/10/28 01:04:43;;;;;;;;;;;;;;;28.56;64.02;101014.22;4999028;28;69678;-36
2021/10/28 01:07:15;;;;;;;;;;;;;;;28.59;64.24;101029.19;5008155;28;66687;-37
2021/10/28 01:09:51;;;;;;;;;;;;;;;28.62;64.16;101028.78;5013106;28;68871;-37
2021/10/28 01:12:22;;;;;;;;;;;;;;;28.65;64.11;101028.38;5012005;28;66354;-36
2021/10/28 01:14:55;;;;;;;;;;;;;;;28.67;63.71;101031.69;5010906;28;70306;-36
2021/10/28 01:17:29;;;;;;;;;;;;;;;28.68;63.82;101033.34;5010884;28;66463;-36
2021/10/28 01:20:00;;;;;;;;;;;;;;;28.71;63.87;101044.56;5012747;28;70973;-36
2021/10/28 01:22:31;;;;;;;;;;;;;;;28.72;64.02;101045.41;5013640;28;66368;-36
2021/10/28 01:25:02;;;;;;;;;;;;;;;28.76;64.11;101052.06;5001251;28;69823;-36
2021/10/28 01:27:33;;;;;;;;;;;;;;;28.78;64.26;101054.56;5001729;28;66272;-36
2021/10/28 01:30:07;;;;;;;;;;;;;;;28.80;64.33;101064.13;5009401;28;69741;-36
2021/10/28 01:32:41;;;;;;;;;;;;;;;28.81;64.39;101060.41;5005081;28;66011;-36
2021/10/28 01:35:12;;;;;;;;;;;;;;;28.83;64.44;101063.72;4995901;28;69942;-36
2021/10/28 01:37:55;;;;;;;;;;;;;;;28.86;64.44;101067.88;5005731;28;66509;-36
2021/10/28 01:40:40;;;;;;;;;;;;;;;28.88;64.43;101072.06;5004652;28;69646;-36
2021/10/28 01:43:13;;;;;;;;;;;;;;;28.86;64.10;101068.75;5007335;28;66052;-35
2021/10/28 01:46:07;;;;;;;;;;;;;;;28.92;64.33;101081.44;4977670;28;69133;-37
2021/10/28 01:48:42;;;;;;;;;;;;;;;28.94;64.25;101082.03;5012947;28;65597;-35
2021/10/28 01:51:21;;;;;;;;;;;;;;;28.96;64.65;101088.06;5013080;28;70244;-36
2021/10/28 01:54:14;;;;;;;;;;;;;;;28.99;64.20;101089.53;5006742;28;66316;-36
2021/10/28 01:56:58;;;;;;;;;;;;;;;29.02;64.28;101099.09;5013185;28;69318;-37
2021/10/28 01:59:42;;;;;;;;;;;;;;;29.05;64.38;101098.72;5012685;28;67330;-37
2021/10/28 02:02:14;;;;;;;;;;;;;;;29.06;64.44;101100.38;5005935;28;69141;-37
2021/10/28 02:04:56;;;;;;;;;;;;;;;29.09;64.91;101105.41;5002577;28;65968;-36
2021/10/28 02:07:27;;;;;;;;;;;;;;;29.11;64.67;101103.31;5001125;28;70261;-37
2021/10/28 02:10:00;;;;;;;;;;;;;;;29.13;64.98;101107.47;5015476;28;66411;-38
2021/10/28 02:12:47;;;;;;;;;;;;;;;29.15;64.45;101108.13;5012205;28;69123;-37
2021/10/28 02:15:19;;;;;;;;;;;;;;;29.18;65.08;101113.13;5013367;28;65686;-37
2021/10/28 02:18:04;;;;;;;;;;;;;;;29.22;64.91;101107.31;5010872;28;70471;-36
2021/10/28 02:20:36;;;;;;;;;;;;;;;29.23;65.20;101099.00;5015183;28;66049;-36
2021/10/28 02:23:15;;;;;;;;;;;;;;;29.26;65.19;101109.41;5015796;28;69241;-35
2021/10/28 02:26:01;;;;;;;;;;;;;;;29.29;65.31;101102.75;5005763;28;65741;-36
2021/10/28 02:28:53;;;;;;;;;;;;;;;29.31;65.48;101104.22;4971507;28;70770;-35
2021/10/28 02:31:50;;;;;;;;;;;;;;;29.32;64.90;101100.47;5005861;28;66365;-37
2021/10/28 02:34:22;;;;;;;;;;;;;;;29.35;65.34;101099.22;5010623;28;70314;-34
2021/10/28 02:37:03;;;;;;;;;;;;;;;29.39;65.00;101097.78;5015157;28;66049;-37
2021/10/28 02:39:50;;;;;;;;;;;;;;;29.40;65.41;101092.19;5003939;28;70006;-37
2021/10/28 02:42:21;;;;;;;;;;;;;;;29.43;65.81;101090.94;5015447;28;66880;-38
2021/10/28 02:45:10;;;;;;;;;;;;;;;29.45;65.73;101096.97;5012919;28;70290;-37
2021/10/28 02:47:49;;;;;;;;;;;;;;;29.48;65.96;101088.44;5014970;28;66441;-36
2021/10/28 02:50:23;;;;;;;;;;;;;;;29.51;66.09;101092.63;5014536;28;69997;-37
2021/10/28 02:53:01;;;;;;;;;;;;;;;29.53;65.64;101096.78;5013911;28;67303;-36
2021/10/28 02:55:34;;;;;;;;;;;;;;;29.56;66.11;101095.50;5011862;28;69256;-37
2021/10/28 02:58:19;;;;;;;;;;;;;;;29.59;66.35;101095.13;5014283;28;65760;-37
2021/10/28 03:01:00;;;;;;;;;;;;;;;29.61;65.98;101082.22;5009975;28;70123;-37
2021/10/28 03:03:35;;;;;;;;;;;;;;;29.64;66.47;101091.81;5010472;28;66546;-35
2021/10/28 03:06:16;;;;;;;;;;;;;;;29.67;66.19;101099.50;4976893;28;70374;-36
2021/10/28 03:09:06;;;;;;;;;;;;;;;29.69;66.76;101098.25;5007210;28;66597;-37
2021/10/28 03:11:53;;;;;;;;;;;;;;;29.71;66.40;101098.91;5008240;28;69955;-37
2021/10/28 03:14:53;;;;;;;;;;;;;;;29.75;66.27;101094.72;5008391;28;66025;-37
2021/10/28 03:17:40;;;;;;;;;;;;;;;29.77;66.27;101086.41;5009895;28;69289;-37
2021/10/28 03:26:27;;;;;;;;;;;;;;;29.86;66.48;101084.34;5008096;28;66858;-37
2021/10/28 03:29:22;;;;;;;;;;;;;;;29.90;66.73;101085.59;5021270;28;70133;-37
2021/10/28 03:31:56;;;;;;;;;;;;;;;29.92;66.83;101086.19;5003078;28;66765;-37
2021/10/28 03:34:42;;;;;;;;;;;;;;;29.94;66.78;101076.84;5008701;28;69669;-36
2021/10/28 03:37:18;;;;;;;;;;;;;;;29.97;66.68;101070.19;5007161;28;65367;-38
2021/10/28 04:28:54;;;;;;;;;;;;;;;30.35;65.59;101031.63;4865857;29;65656;-36
2021/10/28 04:31:43;;;;;;;;;;;;;;;30.39;65.30;101022.03;4856489;29;69379;-36
2021/10/28 04:34:26;;;;;;;;;;;;;;;30.39;65.13;101013.91;4857031;29;65384;-36
2021/10/28 04:37:12;;;;;;;;;;;;;;;30.46;65.50;101014.72;4836619;29;69838;-36
2021/10/28 04:39:58;;;;;;;;;;;;;;;30.48;64.87;101002.66;4852526;29;66404;-36
2021/10/28 04:42:29;;;;;;;;;;;;;;;30.51;64.63;101009.50;4857952;29;70045;-36
2021/10/28 04:45:13;;;;;;;;;;;;;;;30.55;64.70;101009.91;4845348;29;66658;-36
2021/10/28 04:47:56;;;;;;;;;;;;;;;30.57;64.71;101003.22;4855993;29;69484;-37
2021/10/28 04:50:27;;;;;;;;;;;;;;;30.59;64.18;100993.03;4857231;29;65281;-37
2021/10/28 04:52:57;;;;;;;;;;;;;;;30.62;64.06;100992.59;4855967;29;70358;-37
2021/10/28 04:55:28;;;;;;;;;;;;;;;30.64;63.93;100985.06;4856751;29;65829;-37
2021/10/28 04:58:12;;;;;;;;;;;;;;;30.67;64.29;100981.94;4855527;29;69092;-36
2021/10/28 05:00:46;;;;;;;;;;;;;;;30.68;64.28;100975.47;4858204;29;66786;-37
2021/10/28 05:03:17;;;;;;;;;;;;;;;30.55;63.75;100940.34;4883327;28;70313;-36
2021/10/28 05:05:48;;;;;;;;;;;;;;;30.73;63.76;100956.69;4937058;28;67503;-37
2021/10/28 05:08:19;;;;;;;;;;;;;;;30.76;63.86;100957.28;4950601;28;70069;-36
2021/10/28 05:10:50;;;;;;;;;;;;;;;30.78;63.74;100949.78;4941978;28;65532;-37
2021/10/28 05:13:32;;;;;;;;;;;;;;;30.80;63.77;100945.84;4945872;28;69330;-37
2021/10/28 05:16:11;;;;;;;;;;;;;;;30.84;63.76;100946.22;4947095;28;66422;-37
2021/10/28 05:18:42;;;;;;;;;;;;;;;30.86;63.24;100934.13;4969449;28;69373;-37
2021/10/28 05:21:19;;;;;;;;;;;;;;;30.89;63.25;100941.81;4993741;28;66573;-37
2021/10/28 05:23:51;;;;;;;;;;;;;;;30.92;63.14;100929.72;5005742;28;68615;-35
2021/10/28 05:26:25;;;;;;;;;;;;;;;30.91;63.23;100926.19;5009925;28;65905;-36
2021/10/28 05:28:56;;;;;;;;;;;;;;;30.97;63.40;100929.91;5012250;28;68838;-37
2021/10/28 05:31:27;;;;;;;;;;;;;;;30.99;63.39;100919.69;4994682;28;65801;-37
2021/10/28 05:33:58;;;;;;;;;;;;;;;31.01;63.38;100920.28;4985909;28;69703;-37
2021/10/28 05:36:42;;;;;;;;;;;;;;;31.02;63.11;100904.88;5011862;28;67885;-37
2021/10/28 05:39:16;;;;;;;;;;;;;;;31.05;63.09;100910.66;5006894;28;68700;-37
2021/10/28 05:41:47;;;;;;;;;;;;;;;31.08;62.62;100902.09;5013946;28;66627;-37
2021/10/28 05:44:18;;;;;;;;;;;;;;;31.11;62.82;100900.81;5005573;28;71128;-37
2021/10/28 05:46:49;;;;;;;;;;;;;;;31.13;62.99;100894.13;5012201;28;65639;-37
2021/10/28 05:49:22;;;;;;;;;;;;;;;31.16;62.92;100890.97;5013473;28;70477;-37
2021/10/28 05:51:57;;;;;;;;;;;;;;;31.21;62.62;100878.66;4996257;28;66853;-37
2021/10/28 05:54:32;;;;;;;;;;;;;;;31.21;62.57;100871.34;5005073;28;69523;-37
2021/10/28 05:57:31;;;;;;;;;;;;;;;31.25;62.47;100882.56;4981126;28;66900;-37
2021/10/28 06:00:26;;;;;;;;;;;;;;;31.29;62.81;100872.94;5011444;28;69621;-42
2021/10/28 06:02:58;;;;;;;;;;;;;;;31.32;62.00;100867.06;5004043;28;67417;-38
2021/10/28 06:05:32;;;;;;;;;;;;;;;31.34;61.87;100864.94;4998998;28;70057;-37
2021/10/28 06:08:03;;;;;;;;;;;;;;;31.35;61.99;100861.22;4996866;28;67625;-37
2021/10/28 06:10:50;;;;;;;;;;;;;;;31.38;62.16;100849.94;5007990;28;69278;-37
2021/10/28 06:13:24;;;;;;;;;;;;;;;31.41;62.46;100854.91;5014308;28;65233;-37
2021/10/28 06:15:59;;;;;;;;;;;;;;;31.44;61.98;100854.47;5015728;28;70120;-37
2021/10/28 06:21:11;;;;;;;;;;;;;;;31.50;62.24;100850.84;5009960;28;69717;-37
2021/10/28 06:23:44;;;;;;;;;;;;;;;31.53;62.16;100847.69;5012878;28;65321;-37
2021/10/28 06:26:18;;;;;;;;;;;;;;;31.55;61.95;100842.88;5003659;28;70117;-37
2021/10/28 06:29:01;;;;;;;;;;;;;;;31.58;61.68;100842.41;5000705;28;65779;-37
2021/10/28 06:31:34;;;;;;;;;;;;;;;31.61;61.98;100838.41;5012731;28;70264;-37
2021/10/28 06:34:18;;;;;;;;;;;;;;;31.65;61.95;100838.78;5015303;28;65726;-37
2021/10/28 06:36:50;;;;;;;;;;;;;;;31.68;61.56;100827.47;5016492;28;69629;-36
2021/10/28 06:39:34;;;;;;;;;;;;;;;31.72;61.80;100829.53;5016061;28;66665;-37
2021/10/28 06:42:17;;;;;;;;;;;;;;;31.77;61.40;100828.84;5013883;28;69350;-37
2021/10/28 06:44:52;;;;;;;;;;;;;;;31.79;61.45;100821.31;5013611;28;66331;-37
2021/10/28 06:47:29;;;;;;;;;;;;;;;31.82;61.79;100823.59;5014597;28;69737;-37
2021/10/28 06:50:06;;;;;;;;;;;;;;;31.86;61.46;100813.91;5005886;28;65714;-37
2021/10/28 06:55:37;;;;;;;;;;;;;;;31.90;61.89;100809.72;5013755;28;65577;-37
2021/10/28 07:03:37;;;;;;;;;;;;;;;32.00;61.67;100793.72;5004990;28;70095;-37
2021/10/28 07:06:18;;;;;;;;;;;;;;;32.04;61.26;100799.53;5013210;28;66339;-37
2021/10/28 07:08:55;;;;;;;;;;;;;;;32.07;61.35;100799.06;5014466;28;70249;-37
2021/10/28 07:11:33;;;;;;;;;;;;;;;32.12;61.41;100784.78;5008895;28;67026;-38
2021/10/28 07:14:11;;;;;;;;;;;;;;;32.16;60.82;100783.28;5014927;28;70370;-37
2021/10/28 07:16:49;;;;;;;;;;;;;;;32.20;61.11;100784.47;5001733;28;67010;-37
2021/10/28 07:27:53;;;;;;;;;;;;;;;32.39;60.74;100761.59;5002786;28;66229;-37
2021/10/28 07:30:36;;;;;;;;;;;;;;;32.43;60.70;100760.09;5014260;28;70383;-37
2021/10/28 08:18:00;;;;;;;;;;;;;;;32.99;59.13;100740.75;5010003;28;66058;-38
2021/10/28 08:23:30;;;;;;;;;;;;;;;33.10;59.19;100732.63;5008308;28;66804;-37
2021/10/28 08:28:54;;;;;;;;;;;;;;;33.21;59.26;100732.81;4995204;28;66211;-37
2021/10/28 08:31:26;;;;;;;;;;;;;;;33.25;58.93;100734.03;5008800;28;70043;-37
2021/10/28 08:33:57;;;;;;;;;;;;;;;33.29;58.95;100741.47;5012950;28;66556;-37
2021/10/28 08:36:29;;;;;;;;;;;;;;;33.32;58.84;100740.97;5008174;28;70250;-37
2021/10/28 08:39:07;;;;;;;;;;;;;;;33.36;59.03;100742.13;5013112;28;65755;-37
2021/10/28 08:41:38;;;;;;;;;;;;;;;33.42;58.59;100734.91;5024231;28;70614;-37
2021/10/28 08:44:20;;;;;;;;;;;;;;;33.46;58.76;100732.53;5011816;28;66177;-37
2021/10/28 08:46:54;;;;;;;;;;;;;;;33.50;58.58;100736.44;5011223;28;69496;-37
2021/10/28 08:49:31;;;;;;;;;;;;;;;33.54;58.28;100741.19;5021926;28;66998;-37
2021/10/28 09:24:18;;;;;;;;;;;;;;;33.89;57.74;100755.69;5007792;28;65352;-36
2021/10/28 09:27:00;;;;;;;;;;;;;;;33.92;57.31;100771.53;5010966;28;70301;-36
2021/10/28 09:35:13;;;;;;;;;;;;;;;33.97;57.30;100777.06;5013730;28;66260;-37
2021/10/28 09:47:19;;;;;;;;;;;;;;;34.01;57.16;100791.84;4994352;28;67384;-37
2021/10/28 09:53:22;;;;;;;;;;;;;;;34.00;56.87;100801.91;4972285;28;66323;-37
2021/10/28 09:58:43;;;;;;;;;;;;;;;34.02;57.08;100809.84;5008156;28;66449;-37
2021/10/28 10:01:34;;;;;;;;;;;;;;;34.00;56.94;100810.06;5013544;28;70025;-37
2021/10/28 10:04:06;;;;;;;;;;;;;;;34.00;57.17;100815.50;5008773;28;66584;-37
2021/10/28 10:06:40;;;;;;;;;;;;;;;33.99;57.30;100821.19;5007483;28;70413;-37
2021/10/28 10:09:14;;;;;;;;;;;;;;;34.00;57.28;100817.41;5007607;28;66581;-37
2021/10/28 10:11:46;;;;;;;;;;;;;;;33.97;56.87;100823.34;5011550;28;70936;-37
2021/10/28 10:14:20;;;;;;;;;;;;;;;33.95;57.36;100831.72;5015096;28;66813;-37
2021/10/28 10:16:51;;;;;;;;;;;;;;;33.92;57.02;100842.28;5010484;28;70391;-37
2021/10/28 10:19:35;;;;;;;;;;;;;;;33.93;57.26;100835.75;5010403;28;66853;-37
2021/10/28 10:22:18;;;;;;;;;;;;;;;33.92;57.31;100845.81;5012717;28;70010;-37
2021/10/28 10:28:54;;;;;;;;;;;;;;;33.89;57.17;100848.22;5002128;28;69887;-37
2021/10/28 11:30:11;;;;;;;;;;;;;;;33.20;58.84;100943.22;5014340;28;66487;-37
2021/10/28 12:14:13;;;;;;;;;;;;;;;32.82;61.29;101001.44;5013360;28;68936;-37
2021/10/28 12:25:36;;;;;;;;;;;;;;;31.67;68.34;101030.06;5005860;28;70276;-38
2021/10/28 12:45:46;;;;;;;;;;;;;;;30.58;64.92;101077.97;4999478;28;59929;-37
2021/10/28 12:49:00;;;;;;;;;;;;;;;30.45;65.04;101083.44;5012475;28;70483;-37
2021/10/28 13:56:46;;;;;;;;;;;;;;;29.33;60.93;101161.56;5010342;28;70596;-36
2021/10/28 13:59:55;;;;;;;;;;;;;;;29.30;61.35;101164.69;5013438;28;66237;-37
2021/10/28 14:25:37;;;;;;;;;;;;;;;29.28;61.77;101169.47;5007091;28;70815;-36
2021/10/28 14:29:08;;;;;;;;;;;;;;;29.05;63.15;101140.06;5016508;28;66675;-35
2021/10/28 14:39:32;;;;;;;;;;;;;;;28.87;61.24;101162.19;5019076;28;66444;-36
2021/10/28 15:30:20;;;;;;;;;;;;;;;28.64;54.90;101118.44;5014804;28;66216;-36
2021/10/28 15:35:51;;;;;;;;;;;;;;;28.65;53.87;101120.13;5011936;28;66634;-35
2021/10/28 15:38:40;;;;;;;;;;;;;;;28.67;53.49;101112.69;5011620;28;70437;-35
2021/10/28 16:00:08;;;;;;;;;;;;;;;28.50;52.34;101106.75;5014056;28;69372;-36
2021/10/28 16:22:41;;;;;;;;;;;;;;;28.56;52.37;101107.84;5009478;28;70117;-36
2021/10/28 16:25:12;;;;;;;;;;;;;;;28.54;52.70;101096.41;5013114;28;66409;-37
2021/10/28 16:27:43;;;;;;;;;;;;;;;28.52;52.50;101097.41;5009572;28;69773;-37
2021/10/28 16:30:14;;;;;;;;;;;;;;;28.51;51.90;101101.16;5013317;28;65816;-36
2021/10/28 16:32:45;;;;;;;;;;;;;;;28.50;52.29;101096.81;5012136;28;70308;-35
2021/10/28 16:35:16;;;;;;;;;;;;;;;28.47;52.28;101091.81;5010939;28;67127;-35
2021/10/28 16:37:47;;;;;;;;;;;;;;;28.47;52.25;101090.97;5012488;28;69914;-36
2021/10/28 16:40:17;;;;;;;;;;;;;;;28.47;52.36;101089.13;5014989;28;66231;-36
2021/10/28 16:42:48;;;;;;;;;;;;;;;28.44;52.25;101076.00;5012229;28;70486;-37
2021/10/28 16:45:19;;;;;;;;;;;;;;;28.44;52.39;101081.38;5013608;28;66972;-36
2021/10/28 16:47:49;;;;;;;;;;;;;;;28.40;52.28;101080.09;5012812;28;70477;-36
2021/10/28 16:50:20;;;;;;;;;;;;;;;28.39;52.45;101074.91;5014846;28;65717;-36
2021/10/28 16:52:50;;;;;;;;;;;;;;;28.38;51.97;101076.75;5012148;28;70186;-36
2021/10/28 16:55:21;;;;;;;;;;;;;;;28.37;52.13;101074.28;5014601;28;66661;-36
2021/10/28 16:57:51;;;;;;;;;;;;;;;28.14;52.33;101037.63;5009019;28;69800;-37
2021/10/28 17:00:22;;;;;;;;;;;;;;;28.32;52.65;101052.47;5012868;28;65851;-36
2021/10/28 17:02:57;;;;;;;;;;;;;;;28.33;52.63;101065.72;5014688;28;69893;-36
2021/10/28 17:05:28;;;;;;;;;;;;;;;28.33;52.25;101063.03;5005453;28;68145;-36
2021/10/28 17:07:58;;;;;;;;;;;;;;;28.29;52.27;101048.28;4991933;28;70027;-37
2021/10/28 17:10:29;;;;;;;;;;;;;;;28.27;52.25;101047.66;5010858;28;66291;-37
2021/10/28 17:13:00;;;;;;;;;;;;;;;28.10;52.16;101013.94;5004403;28;70097;-37
2021/10/28 17:15:31;;;;;;;;;;;;;;;28.25;52.14;101033.53;5001394;28;66831;-37
2021/10/28 17:18:01;;;;;;;;;;;;;;;28.24;52.11;101031.88;5000454;28;69454;-37
2021/10/28 17:20:36;;;;;;;;;;;;;;;28.20;51.42;101046.78;4994681;28;67228;-36
2021/10/28 17:23:11;;;;;;;;;;;;;;;28.23;51.93;101046.41;5007610;28;70164;-36
2021/10/28 17:25:46;;;;;;;;;;;;;;;28.22;51.85;101050.09;5003997;28;66329;-36
2021/10/28 17:28:16;;;;;;;;;;;;;;;28.21;51.95;101051.16;5008134;28;70596;-36
2021/10/28 17:30:47;;;;;;;;;;;;;;;28.18;51.73;101048.84;5010172;28;65967;-36
2021/10/28 17:33:17;;;;;;;;;;;;;;;28.19;51.44;101051.34;5012563;28;69840;-36
2021/10/28 17:35:48;;;;;;;;;;;;;;;28.19;51.98;101050.50;5008116;28;66554;-35
2021/10/28 17:38:18;;;;;;;;;;;;;;;28.17;52.05;101042.63;5013049;28;70611;-36
2021/10/28 17:40:49;;;;;;;;;;;;;;;28.16;51.70;101040.13;5009726;28;65785;-36
2021/10/28 17:43:43;;;;;;;;;;;;;;;28.13;51.91;101043.22;5009011;28;69846;-35
2021/10/28 17:46:14;;;;;;;;;;;;;;;27.93;51.58;101011.56;5010413;28;65605;-35
2021/10/28 17:48:44;;;;;;;;;;;;;;;28.14;51.27;101043.03;5011037;28;70012;-36
2021/10/28 17:51:15;;;;;;;;;;;;;;;28.10;51.55;101035.50;5011111;28;65524;-37
2021/10/28 17:53:47;;;;;;;;;;;;;;;28.10;51.41;101038.22;5001428;28;69640;-35
2021/10/28 17:56:19;;;;;;;;;;;;;;;28.10;51.80;101036.34;5001185;28;66311;-35
2021/10/28 17:58:49;;;;;;;;;;;;;;;28.09;51.53;101031.16;5004299;28;69391;-36
2021/10/28 18:01:21;;;;;;;;;;;;;;;28.05;51.15;101034.25;5014015;28;66920;-35
2021/10/28 18:03:57;;;;;;;;;;;;;;;28.04;51.58;101032.56;5007039;28;70118;-35
2021/10/28 18:06:28;;;;;;;;;;;;;;;28.04;51.42;101029.06;5007706;28;65082;-36
2021/10/28 18:09:04;;;;;;;;;;;;;;;28.03;52.08;101028.22;5007692;28;70401;-36
2021/10/28 18:11:35;;;;;;;;;;;;;;;28.03;51.82;101025.53;5011584;28;65972;-37
2021/10/28 18:14:11;;;;;;;;;;;;;;;28.04;51.88;101020.97;5010342;28;70085;-37
2021/10/28 18:16:41;;;;;;;;;;;;;;;28.02;51.39;101023.84;5008142;28;66778;-37
2021/10/28 18:19:12;;;;;;;;;;;;;;;28.01;51.62;101019.50;5013713;28;70340;-36
2021/10/28 18:21:45;;;;;;;;;;;;;;;27.99;51.09;101018.84;5007288;28;66671;-37
2021/10/28 18:24:16;;;;;;;;;;;;;;;28.00;51.77;101015.13;5010477;28;70351;-35
2021/10/28 18:26:47;;;;;;;;;;;;;;;27.98;51.48;101013.66;5000975;28;66210;-35
2021/10/28 18:29:17;;;;;;;;;;;;;;;27.95;51.07;100995.19;5006067;28;70780;-35
2021/10/28 18:31:48;;;;;;;;;;;;;;;27.94;50.90;101009.69;5013127;28;67307;-36
2021/10/28 18:34:19;;;;;;;;;;;;;;;27.94;51.24;101002.41;5011570;28;69366;-35
2021/10/28 18:36:50;;;;;;;;;;;;;;;27.94;51.06;100991.63;5013856;28;66933;-36
2021/10/28 18:39:21;;;;;;;;;;;;;;;27.92;50.92;100996.41;5010811;28;70115;-37
2021/10/28 18:41:52;;;;;;;;;;;;;;;27.90;50.95;100976.91;5009564;28;65185;-36
2021/10/28 18:44:23;;;;;;;;;;;;;;;27.92;51.12;100985.63;5002451;28;69132;-36
2021/10/28 18:46:56;;;;;;;;;;;;;;;27.91;51.45;100978.56;5009823;28;65749;-37
2021/10/28 18:49:26;;;;;;;;;;;;;;;27.86;51.36;100972.94;5012915;28;69627;-37
2021/10/28 18:51:57;;;;;;;;;;;;;;;27.88;51.35;100968.16;5009451;28;65175;-36
2021/10/28 18:54:28;;;;;;;;;;;;;;;27.85;51.27;100963.19;5010092;28;70223;-36
2021/10/28 18:56:58;;;;;;;;;;;;;;;27.87;51.00;100965.69;5009604;28;65372;-36
2021/10/28 18:59:29;;;;;;;;;;;;;;;27.86;51.04;100962.16;5009019;28;70701;-38
2021/10/28 19:02:00;;;;;;;;;;;;;;;27.83;51.15;100959.84;5014803;28;66402;-37
2021/10/28 19:04:30;;;;;;;;;;;;;;;27.82;51.21;100955.50;5009874;28;70619;-37
2021/10/28 19:07:01;;;;;;;;;;;;;;;27.80;50.83;100961.09;5018301;28;66810;-36
2021/10/28 19:09:32;;;;;;;;;;;;;;;27.81;50.85;100953.84;5013232;28;69480;-37
2021/10/28 19:12:03;;;;;;;;;;;;;;;27.80;50.89;100954.84;5009896;28;65627;-36
2021/10/28 19:14:38;;;;;;;;;;;;;;;27.81;50.72;100956.53;5008442;28;68952;-35
2021/10/28 19:17:08;;;;;;;;;;;;;;;27.80;50.94;100961.09;5006751;28;65841;-36
2021/10/28 19:19:39;;;;;;;;;;;;;;;27.79;50.80;100953.16;5011048;28;70458;-35
2021/10/28 19:22:09;;;;;;;;;;;;;;;27.78;50.50;100956.91;5015112;28;67205;-36
2021/10/28 19:24:40;;;;;;;;;;;;;;;27.77;50.68;100955.22;5013492;28;69797;-36
2021/10/28 19:27:10;;;;;;;;;;;;;;;27.73;50.58;100953.97;5016983;28;65611;-36
2021/10/28 19:29:47;;;;;;;;;;;;;;;27.74;50.67;100955.59;5014531;28;69356;-36
2021/10/28 19:32:21;;;;;;;;;;;;;;;27.75;50.63;100962.66;5014220;28;66023;-36
2021/10/28 19:34:53;;;;;;;;;;;;;;;27.74;50.20;100961.00;5015117;28;69913;-37
2021/10/28 19:37:35;;;;;;;;;;;;;;;27.73;50.64;100953.97;5015825;28;66209;-36
2021/10/28 19:40:25;;;;;;;;;;;;;;;27.73;50.39;100967.44;5016395;28;70307;-37
2021/10/28 19:48:23;;;;;;;;;;;;;;;27.73;50.94;100967.44;5013961;28;67054;-36
2021/10/28 19:50:54;;;;;;;;;;;;;;;27.68;50.28;100967.19;5013212;28;70124;-36
2021/10/28 19:53:25;;;;;;;;;;;;;;;27.67;50.67;100960.13;5003115;28;66514;-36
2021/10/28 19:56:07;;;;;;;;;;;;;;;27.66;51.02;100961.97;5010165;28;69675;-36
2021/10/28 19:58:45;;;;;;;;;;;;;;;27.66;50.64;100963.84;5009768;28;66219;-36
2021/10/28 20:02:09;;;;;;;;;;;;;;;27.64;50.57;100945.19;5012892;28;70346;-36
2021/10/28 20:20:34;;;;;;;;;;;;;;;27.63;50.39;100938.94;5008541;28;66936;-36
2021/10/28 20:23:04;;;;;;;;;;;;;;;27.58;50.58;100941.44;5003007;28;69241;-36
2021/10/28 20:25:35;;;;;;;;;;;;;;;27.58;50.27;100951.34;5013146;28;65615;-36
2021/10/28 20:28:07;;;;;;;;;;;;;;;27.58;50.24;100952.19;5014489;28;71073;-35
2021/10/28 20:33:19;;;;;;;;;;;;;;;27.53;50.50;100953.81;5006369;28;69977;-35
2021/10/28 20:38:35;;;;;;;;;;;;;;;27.54;50.26;100952.78;5011276;28;70286;-36
2021/10/28 20:41:06;;;;;;;;;;;;;;;27.53;50.43;100957.34;5014662;28;64957;-35
2021/10/28 20:43:36;;;;;;;;;;;;;;;27.53;50.31;100954.66;5013480;28;70247;-35
2021/10/28 20:46:07;;;;;;;;;;;;;;;27.51;50.06;100962.09;5016989;28;66363;-36
2021/10/28 20:48:41;;;;;;;;;;;;;;;27.52;50.42;100954.84;5005462;28;69386;-36
2021/10/28 20:51:11;;;;;;;;;;;;;;;27.50;50.14;100960.44;5014984;28;66416;-36
2021/10/28 20:53:43;;;;;;;;;;;;;;;27.50;50.12;100971.22;5007237;28;69872;-36
2021/10/28 20:56:13;;;;;;;;;;;;;;;27.49;50.32;100969.53;5008954;28;65998;-36
2021/10/28 20:58:43;;;;;;;;;;;;;;;27.49;50.09;100964.13;5007794;28;69737;-36
2021/10/28 21:01:16;;;;;;;;;;;;;;;27.47;49.84;100966.22;5009576;28;66370;-36
2021/10/28 21:03:46;;;;;;;;;;;;;;;27.46;49.71;100959.16;5009051;28;70546;-36
2021/10/28 21:06:17;;;;;;;;;;;;;;;27.47;49.74;100962.66;5008848;28;66702;-36
2021/10/28 21:08:47;;;;;;;;;;;;;;;27.44;49.73;100961.19;5007946;28;70302;-36
2021/10/28 21:11:17;;;;;;;;;;;;;;;27.47;49.37;100968.06;5009463;28;65410;-36
2021/10/28 21:13:48;;;;;;;;;;;;;;;27.44;49.47;100961.19;4998549;28;69596;-36
2021/10/28 21:16:18;;;;;;;;;;;;;;;27.43;49.41;100970.31;4993363;28;65284;-37
2021/10/28 21:18:49;;;;;;;;;;;;;;;27.43;49.34;100966.78;5005103;28;69029;-34
2021/10/28 21:21:19;;;;;;;;;;;;;;;27.43;49.24;100964.09;5008153;28;65934;-36
2021/10/28 21:23:49;;;;;;;;;;;;;;;27.41;49.22;100966.97;5010832;28;69109;-34
2021/10/28 21:26:20;;;;;;;;;;;;;;;27.38;48.91;100986.22;5006122;28;65224;-35
2021/10/28 21:28:50;;;;;;;;;;;;;;;27.38;48.84;100983.53;5001794;28;69404;-35
2021/10/28 21:31:21;;;;;;;;;;;;;;;27.38;49.17;100978.13;5014484;28;65678;-35
2021/10/28 21:33:51;;;;;;;;;;;;;;;27.37;48.78;100976.47;5010979;28;69773;-35
2021/10/28 21:36:22;;;;;;;;;;;;;;;27.36;48.88;100985.59;5014784;28;66609;-41
2021/10/28 21:38:53;;;;;;;;;;;;;;;27.37;48.58;100987.25;5012504;28;69562;-35
2021/10/28 21:41:23;;;;;;;;;;;;;;;27.34;48.80;100987.66;5011105;28;65917;-35
2021/10/28 21:43:54;;;;;;;;;;;;;;;27.34;48.67;100987.66;5014212;28;69742;-35
2021/10/28 21:46:24;;;;;;;;;;;;;;;27.31;48.59;100988.03;5016953;28;65360;-35
2021/10/28 21:48:55;;;;;;;;;;;;;;;27.33;48.91;100996.75;5016486;28;69926;-34
2021/10/28 21:51:25;;;;;;;;;;;;;;;27.31;48.82;100993.44;5015327;28;65185;-35
2021/10/28 21:53:56;;;;;;;;;;;;;;;27.30;48.96;100997.13;5016116;28;69074;-35
2021/10/28 21:56:38;;;;;;;;;;;;;;;27.30;48.96;100997.13;5015414;28;66440;-35
2021/10/28 21:59:22;;;;;;;;;;;;;;;27.29;48.87;101001.69;5012207;28;70404;-35
2021/10/28 22:04:56;;;;;;;;;;;;;;;27.27;48.75;100998.34;5005258;28;70888;-35
2021/10/28 22:24:23;;;;;;;;;;;;;;;27.24;48.53;101031.06;5012179;28;66360;-35
2021/10/28 22:26:57;;;;;;;;;;;;;;;27.25;49.09;101037.28;5017109;28;70566;-34
2021/10/28 22:29:27;;;;;;;;;;;;;;;27.22;48.41;101035.81;5014534;28;66871;-35
2021/10/28 22:31:58;;;;;;;;;;;;;;;27.20;48.61;101039.72;5015158;28;69054;-35